createdAt,value
2019-05-02T00:00:06.871Z,8.77
2019-05-02T00:05:12.116Z,8.70
2019-05-02T00:10:20.046Z,8.46
2019-05-02T00:15:25.291Z,8.48
2019-05-02T00:20:29.509Z,8.57
2019-05-02T00:25:33.944Z,8.29
2019-05-02T00:30:38.128Z,8.36
2019-05-02T00:35:46.213Z,8.45
2019-05-02T00:40:48.210Z,8.38
2019-05-02T00:45:55.048Z,8.41
2019-05-02T00:50:58.436Z,8.28
2019-05-02T00:56:05.194Z,8.17
2019-05-02T01:01:39.637Z,8.17
2019-05-02T01:06:44.776Z,8.15
2019-05-02T01:11:50.001Z,7.92
2019-05-02T01:16:56.162Z,8.22
2019-05-02T01:22:00.117Z,8.10
2019-05-02T01:27:13.159Z,8.01
2019-05-02T01:32:30.154Z,8.29
2019-05-02T01:43:36.061Z,7.88
2019-05-02T01:48:45.769Z,8.07
2019-05-02T01:53:46.277Z,7.74
2019-05-02T01:58:53.037Z,7.78
2019-05-02T02:03:56.517Z,8.03
2019-05-02T02:09:03.501Z,7.91
2019-05-02T02:14:07.389Z,7.76
2019-05-02T02:19:39.106Z,8.02
2019-05-02T02:24:46.864Z,7.70
2019-05-02T02:29:51.256Z,7.87
2019-05-02T02:34:55.466Z,7.64
2019-05-02T02:39:59.697Z,7.84
2019-05-02T02:45:16.200Z,7.90
2019-05-02T02:50:18.052Z,7.91
2019-05-02T02:55:24.478Z,7.82
2019-05-02T03:00:28.250Z,7.62
2019-05-02T03:05:32.509Z,7.82
2019-05-02T03:10:39.847Z,7.73
2019-05-02T03:15:48.094Z,7.62
2019-05-02T03:20:52.333Z,7.75
2019-05-02T03:25:56.584Z,7.61
2019-05-02T03:31:21.914Z,7.60
2019-05-02T03:36:26.831Z,7.70
2019-05-02T03:41:20.597Z,7.93
2019-05-02T03:46:22.522Z,7.88
2019-05-02T03:51:26.516Z,7.90
2019-05-02T03:56:31.646Z,7.86
2019-05-02T04:01:41.348Z,7.84
2019-05-02T04:06:43.955Z,7.84
2019-05-02T04:11:48.386Z,7.92
2019-05-02T04:16:55.299Z,7.91
2019-05-02T04:22:01.465Z,7.72
2019-05-02T04:27:05.051Z,7.94
2019-05-02T04:32:11.456Z,7.90
2019-05-02T04:37:15.430Z,7.78
2019-05-02T04:42:23.190Z,7.93
2019-05-02T04:47:28.842Z,7.97
2019-05-02T04:52:31.616Z,8.17
2019-05-02T04:57:46.840Z,8.12
2019-05-02T05:02:43.547Z,8.05
2019-05-02T05:07:49.470Z,8.06
2019-05-02T05:12:53.898Z,8.17
2019-05-02T05:17:58.300Z,8.13
2019-05-02T05:23:02.725Z,8.06
2019-05-02T05:28:09.012Z,8.24
2019-05-02T05:33:12.970Z,8.20
2019-05-02T05:38:18.220Z,8.07
2019-05-02T05:43:22.574Z,8.26
2019-05-02T05:48:27.370Z,8.29
2019-05-02T05:53:31.712Z,8.05
2019-05-02T05:58:39.972Z,8.00
2019-05-02T06:03:44.894Z,8.27
2019-05-02T06:08:49.115Z,8.38
2019-05-02T06:13:53.833Z,8.52
2019-05-02T06:18:58.056Z,8.76
2019-05-02T06:24:02.391Z,8.76
2019-05-02T06:29:08.224Z,8.76
2019-05-02T06:34:12.503Z,8.78
2019-05-02T06:39:16.737Z,8.86
2019-05-02T06:44:23.785Z,8.91
2019-05-02T06:49:27.006Z,9.04
2019-05-02T06:54:31.228Z,9.12
2019-05-02T06:59:35.603Z,9.23
2019-05-02T07:04:39.865Z,8.94
2019-05-02T07:09:44.141Z,9.00
2019-05-02T07:14:48.385Z,9.30
2019-05-02T07:19:58.830Z,9.38
2019-05-02T07:25:06.989Z,9.26
2019-05-02T07:30:10.339Z,9.32
2019-05-02T07:35:19.304Z,9.25
2019-05-02T07:40:20.888Z,9.43
2019-05-02T07:45:25.139Z,9.36
2019-05-02T07:50:29.382Z,9.40
2019-05-02T07:55:35.332Z,9.30
2019-05-02T08:00:39.712Z,9.37
2019-05-02T08:05:44.416Z,9.49
2019-05-02T08:10:48.662Z,9.58
2019-05-02T08:15:52.931Z,9.44
2019-05-02T08:20:57.387Z,9.67
2019-05-02T08:26:01.793Z,9.72
2019-05-02T08:31:06.122Z,9.62
2019-05-02T08:36:10.352Z,9.66
2019-05-02T08:41:14.589Z,9.65
2019-05-02T08:46:18.884Z,9.87
2019-05-02T08:51:23.129Z,10.18
2019-05-02T08:56:27.385Z,10.07
2019-05-02T09:01:35.316Z,10.12
2019-05-02T09:06:37.766Z,9.95
2019-05-02T09:11:44.028Z,10.16
2019-05-02T09:16:48.106Z,10.40
2019-05-02T09:21:52.693Z,10.52
2019-05-02T09:26:57.002Z,10.55
2019-05-02T09:32:02.164Z,10.73
2019-05-02T09:37:06.472Z,11.10
2019-05-02T09:42:12.444Z,10.88
2019-05-02T09:47:27.280Z,11.03
2019-05-02T09:52:32.189Z,10.79
2019-05-02T09:57:35.761Z,11.12
2019-05-02T10:02:41.754Z,11.13
2019-05-02T10:07:48.559Z,11.41
2019-05-02T10:12:52.219Z,11.09
2019-05-02T10:18:07.811Z,11.64
2019-05-02T10:23:02.814Z,11.50
2019-05-02T10:28:10.078Z,11.48
2019-05-02T10:33:13.546Z,11.34
2019-05-02T10:38:19.429Z,11.05
2019-05-02T10:43:23.942Z,11.06
2019-05-02T10:48:29.058Z,11.24
2019-05-02T10:53:33.458Z,11.53
2019-05-02T10:58:37.707Z,11.41
2019-05-02T11:03:47.413Z,11.61
2019-05-02T11:08:52.454Z,11.56
2019-05-02T11:14:12.823Z,11.50
2019-05-02T11:19:23.054Z,11.46
2019-05-02T11:24:27.282Z,11.09
2019-05-02T11:29:32.231Z,11.13
2019-05-02T11:34:36.673Z,11.30
2019-05-02T11:39:46.278Z,11.50
2019-05-02T11:44:46.879Z,11.51
2019-05-02T11:49:55.605Z,11.18
2019-05-02T11:54:57.081Z,11.34
2019-05-02T12:00:04.925Z,11.41
2019-05-02T12:05:09.427Z,11.62
2019-05-02T12:10:13.842Z,12.05
2019-05-02T12:15:18.090Z,11.72
2019-05-02T12:20:22.827Z,11.92
2019-05-02T12:25:27.146Z,11.82
2019-05-02T12:30:34.157Z,11.87
2019-05-02T12:35:37.459Z,11.65
2019-05-02T12:40:42.309Z,11.82
2019-05-02T12:45:46.627Z,11.71
2019-05-02T12:50:52.766Z,12.11
2019-05-02T12:55:57.008Z,12.12
2019-05-02T13:01:02.842Z,12.23
2019-05-02T13:06:07.393Z,12.25
2019-05-02T13:11:23.865Z,12.40
2019-05-02T13:16:28.215Z,12.49
2019-05-02T13:21:42.168Z,12.23
2019-05-02T13:26:43.194Z,12.33
2019-05-02T13:32:08.696Z,12.60
2019-05-02T13:37:16.617Z,12.44
2019-05-02T13:42:21.941Z,12.33
2019-05-02T13:47:27.157Z,12.42
2019-05-02T13:52:33.187Z,12.45
2019-05-02T13:57:43.015Z,12.54
2019-05-02T14:02:44.225Z,12.81
2019-05-02T14:07:53.982Z,12.99
2019-05-02T14:12:58.534Z,12.98
2019-05-02T14:18:02.825Z,13.11
2019-05-02T14:23:07.298Z,13.14
2019-05-02T14:28:12.981Z,13.03
2019-05-02T14:33:23.267Z,12.89
2019-05-02T14:38:27.263Z,12.80
2019-05-02T14:43:49.259Z,12.85
2019-05-02T14:48:53.531Z,12.74
2019-05-02T14:54:05.829Z,13.25
2019-05-02T14:59:03.962Z,13.67
2019-05-02T15:04:08.514Z,13.85
2019-05-02T15:09:16.813Z,13.53
2019-05-02T15:14:20.772Z,13.47
2019-05-02T15:19:25.155Z,13.14
2019-05-02T15:24:33.180Z,13.16
2019-05-02T15:29:35.355Z,13.41
2019-05-02T15:34:57.540Z,14.31
2019-05-02T15:45:12.379Z,13.79
2019-05-02T15:50:21.986Z,13.48
2019-05-02T15:55:22.851Z,13.24
2019-05-02T16:00:32.207Z,13.21
2019-05-02T16:05:41.079Z,13.26
2019-05-02T16:10:42.942Z,13.14
2019-05-02T16:15:47.440Z,13.10
2019-05-02T16:21:07.046Z,13.24
2019-05-02T16:26:05.856Z,13.18
2019-05-02T16:31:12.578Z,13.18
2019-05-02T16:36:16.815Z,13.13
2019-05-02T16:41:21.765Z,12.96
2019-05-02T16:46:28.120Z,12.83
2019-05-02T16:51:34.722Z,12.88
2019-05-02T16:56:42.279Z,12.93
2019-05-02T17:01:44.461Z,12.90
2019-05-02T17:06:48.987Z,12.93
2019-05-02T17:11:53.239Z,12.93
2019-05-02T17:16:57.486Z,12.90
2019-05-02T17:22:02.601Z,12.89
2019-05-02T17:27:08.029Z,12.99
2019-05-02T17:32:12.289Z,12.97
2019-05-02T17:37:16.805Z,13.04
2019-05-02T17:42:23.520Z,13.06
2019-05-02T17:47:31.057Z,12.93
2019-05-02T17:52:39.239Z,12.80
2019-05-02T17:57:43.504Z,12.63
2019-05-02T18:02:51.885Z,12.58
2019-05-02T18:07:55.540Z,12.56
2019-05-02T18:13:06.737Z,12.55
2019-05-02T18:18:12.270Z,12.54
2019-05-02T18:23:24.100Z,12.49
2019-05-02T18:28:46.060Z,12.22
2019-05-02T18:33:42.428Z,12.26
2019-05-02T18:38:52.497Z,12.21
2019-05-02T18:43:53.638Z,12.24
2019-05-02T18:48:57.929Z,12.31
2019-05-02T18:54:04.358Z,12.35
2019-05-02T18:59:14.198Z,12.36
2019-05-02T19:04:17.719Z,12.42
2019-05-02T19:09:29.783Z,12.44
2019-05-02T19:14:32.749Z,12.47
2019-05-02T19:19:37.905Z,12.52
2019-05-02T19:24:42.846Z,12.50
2019-05-02T19:29:49.527Z,12.51
2019-05-02T19:35:02.254Z,12.59
2019-05-02T19:40:04.773Z,12.52
2019-05-02T19:45:15.398Z,12.59
2019-05-02T19:50:41.646Z,12.55
2019-05-02T19:55:44.114Z,12.59
2019-05-02T20:00:48.836Z,12.52
2019-05-02T20:05:56.748Z,12.57
2019-05-02T20:10:59.227Z,12.52
2019-05-02T20:16:12.581Z,12.45
2019-05-02T20:21:27.837Z,12.49
2019-05-02T20:26:32.559Z,12.53
2019-05-02T20:31:37.444Z,12.45
2019-05-02T20:36:42.585Z,12.30
2019-05-02T20:41:46.918Z,11.93
2019-05-02T20:46:51.707Z,11.62
2019-05-02T20:51:55.996Z,11.32
2019-05-02T20:57:00.326Z,11.29
2019-05-02T21:02:04.618Z,11.07
2019-05-02T21:07:29.574Z,10.88
2019-05-02T21:12:33.812Z,10.87
2019-05-02T21:17:38.090Z,10.84
2019-05-02T21:22:42.435Z,10.67
2019-05-02T21:27:46.710Z,10.70
2019-05-02T21:32:52.093Z,10.62
2019-05-02T21:37:56.398Z,10.53
2019-05-02T21:43:02.483Z,10.50
2019-05-02T21:48:06.631Z,10.60
2019-05-02T21:53:28.583Z,10.34
2019-05-02T21:58:32.814Z,10.22
2019-05-02T22:03:37.819Z,10.12
2019-05-02T22:08:42.053Z,10.11
2019-05-02T22:13:46.289Z,10.08
2019-05-02T22:18:52.173Z,10.10
2019-05-02T22:24:08.123Z,10.06
2019-05-02T22:29:02.692Z,10.14
2019-05-02T22:34:07.144Z,9.97
2019-05-02T22:39:41.918Z,10.00
2019-05-02T22:44:45.834Z,10.00
2019-05-02T22:49:51.824Z,9.83
2019-05-02T22:54:56.148Z,9.72
2019-05-02T23:00:01.888Z,9.78
2019-05-02T23:05:07.403Z,9.68
2019-05-02T23:10:12.655Z,9.68
2019-05-02T23:15:17.007Z,9.65
2019-05-02T23:20:21.784Z,9.58
2019-05-02T23:25:46.178Z,9.51
2019-05-02T23:30:51.882Z,9.44
2019-05-02T23:35:56.139Z,9.40
2019-05-02T23:41:02.072Z,9.29
2019-05-02T23:46:06.683Z,9.14
2019-05-02T23:51:12.107Z,9.01
2019-05-02T23:56:16.432Z,8.89
